sensor_id;sensor_type;location;lat;lon;timestamp;pressure;altitude;pressure_sealevel;temperature;humidity
26865;BME280;40618;51.166;10.322;2023-02-10T00:01:14;99107.69;;;-3.29;72.46
26865;BME280;40618;51.166;10.322;2023-02-10T00:03:42;99106.72;;;-3.31;72.87
26865;BME280;40618;51.166;10.322;2023-02-10T00:06:09;99112.91;;;-3.26;73.27
26865;BME280;40618;51.166;10.322;2023-02-10T00:08:36;99120.66;;;-3.23;73.02
26865;BME280;40618;51.166;10.322;2023-02-10T00:11:07;99120.72;;;-3.21;72.69
26865;BME280;40618;51.166;10.322;2023-02-10T00:13:37;99119.22;;;-3.18;72.95
26865;BME280;40618;51.166;10.322;2023-02-10T00:16:05;99132.75;;;-3.17;73.23
26865;BME280;40618;51.166;10.322;2023-02-10T00:18:33;99132.06;;;-3.15;73.34
26865;BME280;40618;51.166;10.322;2023-02-10T00:21:13;99124.31;;;-3.18;73.24
26865;BME280;40618;51.166;10.322;2023-02-10T00:23:41;99130.22;;;-3.17;72.58
26865;BME280;40618;51.166;10.322;2023-02-10T00:26:09;99135.38;;;-3.16;73.23
26865;BME280;40618;51.166;10.322;2023-02-10T00:28:37;99136.34;;;-3.14;72.74
26865;BME280;40618;51.166;10.322;2023-02-10T00:31:10;99126.19;;;-3.14;72.54
26865;BME280;40618;51.166;10.322;2023-02-10T00:33:39;99128.88;;;-3.11;72.92
26865;BME280;40618;51.166;10.322;2023-02-10T00:36:10;99135.69;;;-3.10;72.91
26865;BME280;40618;51.166;10.322;2023-02-10T00:38:38;99134.19;;;-3.06;73.15
26865;BME280;40618;51.166;10.322;2023-02-10T00:41:06;99138.44;;;-3.05;73.20
26865;BME280;40618;51.166;10.322;2023-02-10T00:43:43;99139.41;;;-3.03;72.88
26865;BME280;40618;51.166;10.322;2023-02-10T00:46:11;99147.09;;;-3.01;72.84
26865;BME280;40618;51.166;10.322;2023-02-10T00:48:37;99143.69;;;-3.02;73.17
26865;BME280;40618;51.166;10.322;2023-02-10T00:51:03;99141.94;;;-3.03;73.56
26865;BME280;40618;51.166;10.322;2023-02-10T00:53:30;99137.88;;;-2.99;73.10
26865;BME280;40618;51.166;10.322;2023-02-10T00:55:56;99137.19;;;-2.97;73.07
26865;BME280;40618;51.166;10.322;2023-02-10T00:58:23;99134.81;;;-2.94;73.09
26865;BME280;40618;51.166;10.322;2023-02-10T01:00:49;99138.34;;;-2.90;73.39
26865;BME280;40618;51.166;10.322;2023-02-10T01:03:15;99128.22;;;-2.90;73.42
26865;BME280;40618;51.166;10.322;2023-02-10T01:05:41;99133.94;;;-2.94;73.47
26865;BME280;40618;51.166;10.322;2023-02-10T01:08:07;99135.34;;;-2.99;73.45
26865;BME280;40618;51.166;10.322;2023-02-10T01:10:33;99139.50;;;-3.01;73.22
26865;BME280;40618;51.166;10.322;2023-02-10T01:13:04;99136.97;;;-3.01;73.25
26865;BME280;40618;51.166;10.322;2023-02-10T01:15:31;99136.00;;;-3.03;73.18
26865;BME280;40618;51.166;10.322;2023-02-10T01:17:57;99139.34;;;-3.04;73.57
26865;BME280;40618;51.166;10.322;2023-02-10T01:20:24;99141.31;;;-2.99;73.34
26865;BME280;40618;51.166;10.322;2023-02-10T01:22:50;99146.53;;;-2.96;73.77
26865;BME280;40618;51.166;10.322;2023-02-10T01:25:16;99140.69;;;-2.95;73.48
26865;BME280;40618;51.166;10.322;2023-02-10T01:27:42;99149.13;;;-2.94;73.83
26865;BME280;40618;51.166;10.322;2023-02-10T01:30:08;99150.97;;;-2.92;73.94
26865;BME280;40618;51.166;10.322;2023-02-10T01:32:34;99153.56;;;-2.90;73.83
26865;BME280;40618;51.166;10.322;2023-02-10T01:35:00;99151.22;;;-2.87;74.01
26865;BME280;40618;51.166;10.322;2023-02-10T01:37:26;99158.00;;;-2.86;74.17
26865;BME280;40618;51.166;10.322;2023-02-10T01:39:51;99158.91;;;-2.85;73.83
26865;BME280;40618;51.166;10.322;2023-02-10T01:42:17;99169.88;;;-2.85;73.46
26865;BME280;40618;51.166;10.322;2023-02-10T01:47:08;99162.34;;;-2.83;74.10
26865;BME280;40618;51.166;10.322;2023-02-10T01:49:39;99164.09;;;-2.82;73.86
26865;BME280;40618;51.166;10.322;2023-02-10T01:52:11;99165.84;;;-2.81;73.87
26865;BME280;40618;51.166;10.322;2023-02-10T01:54:44;99159.97;;;-2.80;74.24
26865;BME280;40618;51.166;10.322;2023-02-10T01:57:14;99154.03;;;-2.81;74.21
26865;BME280;40618;51.166;10.322;2023-02-10T01:59:41;99167.56;;;-2.80;73.92
26865;BME280;40618;51.166;10.322;2023-02-10T02:02:08;99157.44;;;-2.80;74.22
26865;BME280;40618;51.166;10.322;2023-02-10T02:04:47;99159.19;;;-2.79;74.06
26865;BME280;40618;51.166;10.322;2023-02-10T02:07:17;99154.19;;;-2.78;73.97
26865;BME280;40618;51.166;10.322;2023-02-10T02:09:45;99151.72;;;-2.76;74.20
26865;BME280;40618;51.166;10.322;2023-02-10T02:12:33;99157.63;;;-2.77;74.24
26865;BME280;40618;51.166;10.322;2023-02-10T02:15:27;99146.59;;;-2.78;74.08
26865;BME280;40618;51.166;10.322;2023-02-10T02:18:14;99161.00;;;-2.77;74.45
26865;BME280;40618;51.166;10.322;2023-02-10T02:26:19;99165.28;;;-2.76;74.23
26865;BME280;40618;51.166;10.322;2023-02-10T02:29:23;99172.25;;;-2.72;74.71
26865;BME280;40618;51.166;10.322;2023-02-10T02:34:58;99171.63;;;-2.67;74.57
26865;BME280;40618;51.166;10.322;2023-02-10T02:37:30;99169.09;;;-2.67;74.69
26865;BME280;40618;51.166;10.322;2023-02-10T02:39:58;99165.75;;;-2.66;74.61
26865;BME280;40618;51.166;10.322;2023-02-10T02:42:26;99161.53;;;-2.66;74.70
26865;BME280;40618;51.166;10.322;2023-02-10T02:44:57;99163.28;;;-2.65;74.54
26865;BME280;40618;51.166;10.322;2023-02-10T02:48:03;99157.34;;;-2.65;74.59
26865;BME280;40618;51.166;10.322;2023-02-10T02:56:34;99164.88;;;-2.67;74.64
26865;BME280;40618;51.166;10.322;2023-02-10T03:01:43;99170.00;;;-2.65;74.81
26865;BME280;40618;51.166;10.322;2023-02-10T03:04:15;99169.22;;;-2.64;74.86
26865;BME280;40618;51.166;10.322;2023-02-10T03:06:42;99161.69;;;-2.63;74.92
26865;BME280;40618;51.166;10.322;2023-02-10T03:09:08;99160.91;;;-2.62;75.22
26865;BME280;40618;51.166;10.322;2023-02-10T03:11:34;99154.97;;;-2.62;74.82
26865;BME280;40618;51.166;10.322;2023-02-10T03:14:00;99154.25;;;-2.60;74.95
26865;BME280;40618;51.166;10.322;2023-02-10T03:16:26;99156.78;;;-2.60;74.95
26865;BME280;40618;51.166;10.322;2023-02-10T03:18:52;99160.19;;;-2.59;75.18
26865;BME280;40618;51.166;10.322;2023-02-10T03:21:18;99172.88;;;-2.59;74.74
26865;BME280;40618;51.166;10.322;2023-02-10T03:23:43;99167.81;;;-2.59;75.15
26865;BME280;40618;51.166;10.322;2023-02-10T03:26:09;99171.25;;;-2.57;75.06
26865;BME280;40618;51.166;10.322;2023-02-10T03:28:35;99164.47;;;-2.58;74.88
26865;BME280;40618;51.166;10.322;2023-02-10T03:31:05;99167.88;;;-2.58;75.14
26865;BME280;40618;51.166;10.322;2023-02-10T03:33:32;99167.09;;;-2.57;74.94
26865;BME280;40618;51.166;10.322;2023-02-10T03:35:58;99173.00;;;-2.56;75.36
26865;BME280;40618;51.166;10.322;2023-02-10T03:38:25;99176.34;;;-2.57;74.87
26865;BME280;40618;51.166;10.322;2023-02-10T03:40:52;99184.75;;;-2.58;75.16
26865;BME280;40618;51.166;10.322;2023-02-10T03:43:19;99186.47;;;-2.57;75.33
26865;BME280;40618;51.166;10.322;2023-02-10T03:45:46;99186.41;;;-2.59;75.35
26865;BME280;40618;51.166;10.322;2023-02-10T03:48:12;99183.81;;;-2.60;74.86
26865;BME280;40618;51.166;10.322;2023-02-10T03:50:38;99181.25;;;-2.60;75.21
26865;BME280;40618;51.166;10.322;2023-02-10T03:53:04;99198.16;;;-2.61;75.56
26865;BME280;40618;51.166;10.322;2023-02-10T03:55:31;99190.47;;;-2.62;75.52
26865;BME280;40618;51.166;10.322;2023-02-10T03:57:56;99197.19;;;-2.63;75.27
26865;BME280;40618;51.166;10.322;2023-02-10T04:00:22;99212.41;;;-2.63;75.54
26865;BME280;40618;51.166;10.322;2023-02-10T04:02:48;99215.84;;;-2.62;75.81
26865;BME280;40618;51.166;10.322;2023-02-10T04:05:14;99205.69;;;-2.62;75.50
26865;BME280;40618;51.166;10.322;2023-02-10T04:07:40;99208.31;;;-2.61;75.44
26865;BME280;40618;51.166;10.322;2023-02-10T04:10:06;99216.78;;;-2.60;75.38
26865;BME280;40618;51.166;10.322;2023-02-10T04:12:32;99206.69;;;-2.59;75.84
26865;BME280;40618;51.166;10.322;2023-02-10T04:14:58;99212.75;;;-2.57;75.49
26865;BME280;40618;51.166;10.322;2023-02-10T04:17:24;99216.13;;;-2.56;75.61
26865;BME280;40618;51.166;10.322;2023-02-10T04:19:49;99216.91;;;-2.57;75.43
26865;BME280;40618;51.166;10.322;2023-02-10T04:22:16;99213.59;;;-2.56;75.89
26865;BME280;40618;51.166;10.322;2023-02-10T04:24:42;99222.97;;;-2.55;75.39
26865;BME280;40618;51.166;10.322;2023-02-10T04:27:07;99214.56;;;-2.54;76.02
26865;BME280;40618;51.166;10.322;2023-02-10T04:29:33;99221.34;;;-2.53;75.86
26865;BME280;40618;51.166;10.322;2023-02-10T04:32:04;99221.34;;;-2.53;75.73
26865;BME280;40618;51.166;10.322;2023-02-10T04:34:29;99212.88;;;-2.53;75.87
26865;BME280;40618;51.166;10.322;2023-02-10T04:36:55;99217.88;;;-2.55;76.14
26865;BME280;40618;51.166;10.322;2023-02-10T04:39:21;99221.22;;;-2.56;75.90
26865;BME280;40618;51.166;10.322;2023-02-10T04:41:46;99217.88;;;-2.55;76.08
26865;BME280;40618;51.166;10.322;2023-02-10T04:44:12;99216.28;;;-2.53;75.75
26865;BME280;40618;51.166;10.322;2023-02-10T04:46:38;99218.03;;;-2.52;76.10
26865;BME280;40618;51.166;10.322;2023-02-10T04:49:03;99222.25;;;-2.52;76.30
26865;BME280;40618;51.166;10.322;2023-02-10T04:51:29;99226.41;;;-2.53;75.91
26865;BME280;40618;51.166;10.322;2023-02-10T04:53:55;99222.25;;;-2.52;75.93
26865;BME280;40618;51.166;10.322;2023-02-10T04:56:21;99232.47;;;-2.51;76.04
26865;BME280;40618;51.166;10.322;2023-02-10T04:58:46;99238.41;;;-2.50;76.07
26865;BME280;40618;51.166;10.322;2023-02-10T05:01:12;99235.84;;;-2.50;76.12
26865;BME280;40618;51.166;10.322;2023-02-10T05:03:38;99234.22;;;-2.50;75.98
26865;BME280;40618;51.166;10.322;2023-02-10T05:09:44;99225.78;;;-2.49;76.05
26865;BME280;40618;51.166;10.322;2023-02-10T05:12:10;99226.59;;;-2.50;76.50
26865;BME280;40618;51.166;10.322;2023-02-10T05:14:35;99234.13;;;-2.51;76.23
26865;BME280;40618;51.166;10.322;2023-02-10T05:17:01;99235.72;;;-2.53;75.99
26865;BME280;40618;51.166;10.322;2023-02-10T05:19:26;99230.63;;;-2.53;76.63
26865;BME280;40618;51.166;10.322;2023-02-10T05:21:52;99232.38;;;-2.52;76.41
26865;BME280;40618;51.166;10.322;2023-02-10T05:24:18;99234.03;;;-2.53;76.44
26865;BME280;40618;51.166;10.322;2023-02-10T05:26:43;99244.09;;;-2.55;76.06
26865;BME280;40618;51.166;10.322;2023-02-10T05:29:09;99239.09;;;-2.53;76.73
26865;BME280;40618;51.166;10.322;2023-02-10T05:31:34;99243.41;;;-2.52;76.33
26865;BME280;40618;51.166;10.322;2023-02-10T05:34:00;99231.59;;;-2.51;76.28
26865;BME280;40618;51.166;10.322;2023-02-10T05:36:26;99232.47;;;-2.51;76.44
26865;BME280;40618;51.166;10.322;2023-02-10T05:38:51;99232.53;;;-2.49;76.16
26865;BME280;40618;51.166;10.322;2023-02-10T05:41:36;99230.78;;;-2.50;76.48
26865;BME280;40618;51.166;10.322;2023-02-10T05:44:02;99236.75;;;-2.50;76.65
26865;BME280;40618;51.166;10.322;2023-02-10T05:46:27;99237.53;;;-2.51;76.32
26865;BME280;40618;51.166;10.322;2023-02-10T05:48:53;99237.38;;;-2.54;76.56
26865;BME280;40618;51.166;10.322;2023-02-10T05:51:19;99239.94;;;-2.54;76.51
26865;BME280;40618;51.166;10.322;2023-02-10T05:53:45;99230.63;;;-2.53;76.46
26865;BME280;40618;51.166;10.322;2023-02-10T05:56:10;99238.19;;;-2.55;76.21
26865;BME280;40618;51.166;10.322;2023-02-10T05:58:36;99233.03;;;-2.57;76.17
26865;BME280;40618;51.166;10.322;2023-02-10T06:01:06;99224.53;;;-2.57;76.84
26865;BME280;40618;51.166;10.322;2023-02-10T06:03:33;99226.19;;;-2.58;76.81
26865;BME280;40618;51.166;10.322;2023-02-10T06:05:59;99223.66;;;-2.58;76.53
26865;BME280;40618;51.166;10.322;2023-02-10T06:08:25;99221.84;;;-2.60;76.77
26865;BME280;40618;51.166;10.322;2023-02-10T06:10:52;99224.47;;;-2.59;76.58
26865;BME280;40618;51.166;10.322;2023-02-10T06:13:18;99218.53;;;-2.59;77.08
26865;BME280;40618;51.166;10.322;2023-02-10T06:15:43;99227.81;;;-2.60;76.66
26865;BME280;40618;51.166;10.322;2023-02-10T06:18:09;99234.44;;;-2.62;77.21
26865;BME280;40618;51.166;10.322;2023-02-10T06:20:35;99244.53;;;-2.63;76.92
26865;BME280;40618;51.166;10.322;2023-02-10T06:23:01;99241.72;;;-2.68;76.76
26865;BME280;40618;51.166;10.322;2023-02-10T06:25:26;99244.19;;;-2.69;77.05
26865;BME280;40618;51.166;10.322;2023-02-10T06:27:53;99253.41;;;-2.72;77.06
26865;BME280;40618;51.166;10.322;2023-02-10T06:30:19;99246.50;;;-2.74;76.74
26865;BME280;40618;51.166;10.322;2023-02-10T06:32:44;99248.91;;;-2.77;76.99
26865;BME280;40618;51.166;10.322;2023-02-10T06:35:10;99255.47;;;-2.81;76.97
26865;BME280;40618;51.166;10.322;2023-02-10T06:37:36;99263.84;;;-2.82;77.31
26865;BME280;40618;51.166;10.322;2023-02-10T06:40:05;99262.13;;;-2.83;76.99
26865;BME280;40618;51.166;10.322;2023-02-10T06:42:32;99265.44;;;-2.84;76.63
26865;BME280;40618;51.166;10.322;2023-02-10T06:44:58;99259.47;;;-2.84;77.11
26865;BME280;40618;51.166;10.322;2023-02-10T06:47:24;99272.91;;;-2.87;77.19
26865;BME280;40618;51.166;10.322;2023-02-10T06:49:49;99269.63;;;-2.84;77.27
26865;BME280;40618;51.166;10.322;2023-02-10T06:52:15;99273.84;;;-2.85;77.24
26865;BME280;40618;51.166;10.322;2023-02-10T06:54:41;99273.06;;;-2.84;77.35
26865;BME280;40618;51.166;10.322;2023-02-10T06:57:07;99281.53;;;-2.83;77.54
26865;BME280;40618;51.166;10.322;2023-02-10T06:59:33;99279.88;;;-2.83;77.43
26865;BME280;40618;51.166;10.322;2023-02-10T07:01:59;99274.69;;;-2.84;77.35
26865;BME280;40618;51.166;10.322;2023-02-10T07:04:31;99285.72;;;-2.84;77.19
26865;BME280;40618;51.166;10.322;2023-02-10T07:06:57;99293.56;;;-2.79;77.27
26865;BME280;40618;51.166;10.322;2023-02-10T07:09:23;99299.75;;;-2.74;77.35
26865;BME280;40618;51.166;10.322;2023-02-10T07:11:50;99299.97;;;-2.69;77.59
26865;BME280;40618;51.166;10.322;2023-02-10T07:14:16;99290.88;;;-2.66;77.58
26865;BME280;40618;51.166;10.322;2023-02-10T07:16:42;99291.94;;;-2.62;77.64
26865;BME280;40618;51.166;10.322;2023-02-10T07:19:07;99287.78;;;-2.60;77.72
26865;BME280;40618;51.166;10.322;2023-02-10T07:21:33;99294.69;;;-2.58;77.76
26865;BME280;40618;51.166;10.322;2023-02-10T07:23:59;99287.94;;;-2.57;77.32
26865;BME280;40618;51.166;10.322;2023-02-10T07:26:27;99294.69;;;-2.58;77.42
26865;BME280;40618;51.166;10.322;2023-02-10T07:28:53;99286.28;;;-2.57;77.57
26865;BME280;40618;51.166;10.322;2023-02-10T07:31:19;99292.22;;;-2.56;77.80
26865;BME280;40618;51.166;10.322;2023-02-10T07:33:45;99294.84;;;-2.55;77.50
26865;BME280;40618;51.166;10.322;2023-02-10T07:36:10;99300.81;;;-2.54;77.73
26865;BME280;40618;51.166;10.322;2023-02-10T07:38:36;99301.75;;;-2.52;77.68
26865;BME280;40618;51.166;10.322;2023-02-10T07:41:03;99306.03;;;-2.51;77.59
26865;BME280;40618;51.166;10.322;2023-02-10T07:43:30;99313.72;;;-2.49;77.65
26865;BME280;40618;51.166;10.322;2023-02-10T07:45:56;99309.50;;;-2.49;77.23
26865;BME280;40618;51.166;10.322;2023-02-10T07:48:22;99318.06;;;-2.47;77.90
26865;BME280;40618;51.166;10.322;2023-02-10T07:50:48;99318.22;;;-2.44;77.64
26865;BME280;40618;51.166;10.322;2023-02-10T07:53:17;99319.97;;;-2.43;77.85
26865;BME280;40618;51.166;10.322;2023-02-10T07:55:43;99323.44;;;-2.41;77.95
26865;BME280;40618;51.166;10.322;2023-02-10T07:58:09;99322.81;;;-2.36;77.94
26865;BME280;40618;51.166;10.322;2023-02-10T08:00:35;99337.25;;;-2.35;77.73
26865;BME280;40618;51.166;10.322;2023-02-10T08:03:01;99347.53;;;-2.32;77.78
26865;BME280;40618;51.166;10.322;2023-02-10T08:05:27;99346.94;;;-2.28;78.22
26865;BME280;40618;51.166;10.322;2023-02-10T08:07:54;99342.00;;;-2.25;78.04
26865;BME280;40618;51.166;10.322;2023-02-10T08:10:20;99346.44;;;-2.21;78.27
26865;BME280;40618;51.166;10.322;2023-02-10T08:12:46;99341.53;;;-2.18;78.18
26865;BME280;40618;51.166;10.322;2023-02-10T08:15:12;99350.97;;;-2.15;77.96
26865;BME280;40618;51.166;10.322;2023-02-10T08:17:38;99343.34;;;-2.15;78.10
26865;BME280;40618;51.166;10.322;2023-02-10T08:20:07;99346.81;;;-2.13;77.84
26865;BME280;40618;51.166;10.322;2023-02-10T08:22:33;99346.81;;;-2.13;78.02
26865;BME280;40618;51.166;10.322;2023-02-10T08:24:59;99338.50;;;-2.11;77.95
26865;BME280;40618;51.166;10.322;2023-02-10T08:27:26;99348.81;;;-2.08;78.15
26865;BME280;40618;51.166;10.322;2023-02-10T08:29:54;99350.53;;;-2.07;78.10
26865;BME280;40618;51.166;10.322;2023-02-10T08:32:20;99346.50;;;-2.03;78.36
26865;BME280;40618;51.166;10.322;2023-02-10T08:34:50;99354.44;;;-1.97;78.37
26865;BME280;40618;51.166;10.322;2023-02-10T08:37:17;99346.97;;;-1.94;78.28
26865;BME280;40618;51.166;10.322;2023-02-10T08:39:44;99359.81;;;-1.91;78.08
26865;BME280;40618;51.166;10.322;2023-02-10T08:42:10;99359.03;;;-1.90;78.15
26865;BME280;40618;51.166;10.322;2023-02-10T08:44:36;99354.03;;;-1.88;78.03
26865;BME280;40618;51.166;10.322;2023-02-10T08:47:03;99365.13;;;-1.86;78.35
26865;BME280;40618;51.166;10.322;2023-02-10T08:49:29;99359.31;;;-1.83;78.15
26865;BME280;40618;51.166;10.322;2023-02-10T08:51:55;99368.91;;;-1.78;78.22
26865;BME280;40618;51.166;10.322;2023-02-10T08:54:21;99372.41;;;-1.76;78.09
26865;BME280;40618;51.166;10.322;2023-02-10T08:56:48;99376.84;;;-1.72;78.44
26865;BME280;40618;51.166;10.322;2023-02-10T08:59:17;99366.13;;;-1.66;78.27
26865;BME280;40618;51.166;10.322;2023-02-10T09:01:43;99369.63;;;-1.64;78.08
26865;BME280;40618;51.166;10.322;2023-02-10T09:04:09;99373.88;;;-1.63;78.20
26865;BME280;40618;51.166;10.322;2023-02-10T09:06:39;99372.22;;;-1.62;77.95
26865;BME280;40618;51.166;10.322;2023-02-10T09:09:08;99370.63;;;-1.60;78.08
26865;BME280;40618;51.166;10.322;2023-02-10T09:11:38;99371.50;;;-1.60;78.18
26865;BME280;40618;51.166;10.322;2023-02-10T09:14:04;99372.50;;;-1.56;78.29
26865;BME280;40618;51.166;10.322;2023-02-10T09:16:31;99374.41;;;-1.52;78.27
26865;BME280;40618;51.166;10.322;2023-02-10T09:18:57;99369.25;;;-1.54;78.25
26865;BME280;40618;51.166;10.322;2023-02-10T09:21:22;99365.19;;;-1.50;78.53
26865;BME280;40618;51.166;10.322;2023-02-10T09:23:50;99366.13;;;-1.48;78.44
26865;BME280;40618;51.166;10.322;2023-02-10T09:26:16;99358.69;;;-1.45;78.61
26865;BME280;40618;51.166;10.322;2023-02-10T09:28:42;99358.97;;;-1.39;78.55
26865;BME280;40618;51.166;10.322;2023-02-10T09:31:09;99369.97;;;-1.38;78.52
26865;BME280;40618;51.166;10.322;2023-02-10T09:33:36;99365.72;;;-1.39;78.48
26865;BME280;40618;51.166;10.322;2023-02-10T09:36:06;99373.09;;;-1.44;78.48
26865;BME280;40618;51.166;10.322;2023-02-10T09:38:33;99369.63;;;-1.46;78.57
26865;BME280;40618;51.166;10.322;2023-02-10T09:41:17;99369.06;;;-1.40;78.59
26865;BME280;40618;51.166;10.322;2023-02-10T09:44:15;99375.38;;;-1.32;78.54
26865;BME280;40618;51.166;10.322;2023-02-10T09:53:26;99390.97;;;-1.42;78.68
26865;BME280;40618;51.166;10.322;2023-02-10T09:58:37;99384.50;;;-1.36;78.58
26865;BME280;40618;51.166;10.322;2023-02-10T10:06:26;99387.09;;;-1.17;78.99
26865;BME280;40618;51.166;10.322;2023-02-10T10:11:54;99383.53;;;-1.21;78.74
26865;BME280;40618;51.166;10.322;2023-02-10T10:14:25;99387.88;;;-1.18;78.94
26865;BME280;40618;51.166;10.322;2023-02-10T10:30:07;99374.97;;;-1.05;79.43
26865;BME280;40618;51.166;10.322;2023-02-10T10:32:40;99370.28;;;-0.96;79.48
26865;BME280;40618;51.166;10.322;2023-02-10T10:35:16;99375.66;;;-0.90;79.21
26865;BME280;40618;51.166;10.322;2023-02-10T10:37:54;99371.31;;;-0.92;79.08
26865;BME280;40618;51.166;10.322;2023-02-10T10:40:24;99371.97;;;-0.96;79.00
26865;BME280;40618;51.166;10.322;2023-02-10T10:42:56;99355.03;;;-0.96;79.17
26865;BME280;40618;51.166;10.322;2023-02-10T10:45:33;99367.31;;;-0.87;79.49
26865;BME280;40618;51.166;10.322;2023-02-10T10:48:19;99353.81;;;-0.86;79.47
26865;BME280;40618;51.166;10.322;2023-02-10T10:50:55;99352.13;;;-0.86;79.31
26865;BME280;40618;51.166;10.322;2023-02-10T10:53:41;99349.94;;;-0.78;79.23
26865;BME280;40618;51.166;10.322;2023-02-10T10:56:23;99357.75;;;-0.73;79.51
26865;BME280;40618;51.166;10.322;2023-02-10T10:59:16;99346.06;;;-0.70;79.12
26865;BME280;40618;51.166;10.322;2023-02-10T11:01:46;99337.91;;;-0.62;79.80
26865;BME280;40618;51.166;10.322;2023-02-10T11:04:19;99333.22;;;-0.53;79.21
26865;BME280;40618;51.166;10.322;2023-02-10T11:06:50;99321.47;;;-0.49;79.54
26865;BME280;40618;51.166;10.322;2023-02-10T11:09:23;99334.28;;;-0.48;79.80
26865;BME280;40618;51.166;10.322;2023-02-10T11:11:50;99322.63;;;-0.43;79.57
26865;BME280;40618;51.166;10.322;2023-02-10T11:14:21;99317.94;;;-0.33;79.54
26865;BME280;40618;51.166;10.322;2023-02-10T11:16:53;99317.63;;;-0.22;79.77
26865;BME280;40618;51.166;10.322;2023-02-10T11:19:25;99319.66;;;-0.13;79.61
26865;BME280;40618;51.166;10.322;2023-02-10T11:21:53;99321.88;;;-0.01;79.51
26865;BME280;40618;51.166;10.322;2023-02-10T11:24:26;99325.50;;;0.04;79.89
26865;BME280;40618;51.166;10.322;2023-02-10T11:27:13;99319.91;;;0.13;80.01
26865;BME280;40618;51.166;10.322;2023-02-10T11:29:50;99311.69;;;0.20;79.94
26865;BME280;40618;51.166;10.322;2023-02-10T11:32:23;99309.34;;;0.25;79.62
26865;BME280;40618;51.166;10.322;2023-02-10T11:34:51;99312.06;;;0.29;79.53
26865;BME280;40618;51.166;10.322;2023-02-10T11:37:28;99312.13;;;0.31;79.38
26865;BME280;40618;51.166;10.322;2023-02-10T11:39:59;99305.50;;;0.35;79.57
26865;BME280;40618;51.166;10.322;2023-02-10T11:42:33;99304.91;;;0.42;79.33
26865;BME280;40618;51.166;10.322;2023-02-10T11:47:46;99299.44;;;0.54;79.66
26865;BME280;40618;51.166;10.322;2023-02-10T11:50:24;99303.66;;;0.53;79.14
26865;BME280;40618;51.166;10.322;2023-02-10T11:52:52;99304.50;;;0.52;79.33
26865;BME280;40618;51.166;10.322;2023-02-10T11:55:18;99302.22;;;0.60;79.24
26865;BME280;40618;51.166;10.322;2023-02-10T11:57:58;99295.63;;;0.65;79.73
26865;BME280;40618;51.166;10.322;2023-02-10T12:01:09;99299.34;;;0.73;79.53
26865;BME280;40618;51.166;10.322;2023-02-10T12:06:38;99300.09;;;0.71;79.49
26865;BME280;40618;51.166;10.322;2023-02-10T12:24:18;99287.53;;;0.98;79.22
26865;BME280;40618;51.166;10.322;2023-02-10T12:26:58;99297.78;;;0.99;78.98
26865;BME280;40618;51.166;10.322;2023-02-10T12:47:17;99278.06;;;1.18;79.32
26865;BME280;40618;51.166;10.322;2023-02-10T12:53:28;99270.25;;;1.38;79.25
26865;BME280;40618;51.166;10.322;2023-02-10T12:56:08;99273.97;;;1.46;79.10
26865;BME280;40618;51.166;10.322;2023-02-10T12:58:44;99274.19;;;1.52;78.57
26865;BME280;40618;51.166;10.322;2023-02-10T13:01:18;99268.38;;;1.56;78.22
26865;BME280;40618;51.166;10.322;2023-02-10T13:07:08;99263.31;;;1.58;79.10
26865;BME280;40618;51.166;10.322;2023-02-10T13:12:42;99270.66;;;1.73;78.96
26865;BME280;40618;51.166;10.322;2023-02-10T13:15:15;99268.28;;;1.79;78.79
26865;BME280;40618;51.166;10.322;2023-02-10T13:17:49;99265.16;;;1.86;78.15
26865;BME280;40618;51.166;10.322;2023-02-10T13:29:07;99257.41;;;1.84;78.54
26865;BME280;40618;51.166;10.322;2023-02-10T13:34:29;99256.94;;;1.71;78.52
26865;BME280;40618;51.166;10.322;2023-02-10T13:40:05;99261.09;;;1.67;78.57
26865;BME280;40618;51.166;10.322;2023-02-10T13:42:54;99265.44;;;1.69;78.42
26865;BME280;40618;51.166;10.322;2023-02-10T13:45:33;99258.03;;;1.77;78.87
26865;BME280;40618;51.166;10.322;2023-02-10T13:48:20;99249.69;;;1.83;78.71
26865;BME280;40618;51.166;10.322;2023-02-10T13:51:00;99252.47;;;1.89;78.52
26865;BME280;40618;51.166;10.322;2023-02-10T13:53:30;99248.44;;;1.96;78.21
26865;BME280;40618;51.166;10.322;2023-02-10T14:01:37;99260.00;;;2.12;78.41
26865;BME280;40618;51.166;10.322;2023-02-10T14:06:44;99249.28;;;2.22;78.50
26865;BME280;40618;51.166;10.322;2023-02-10T14:09:35;99245.97;;;2.25;78.54
26865;BME280;40618;51.166;10.322;2023-02-10T14:12:18;99251.88;;;2.24;77.76
26865;BME280;40618;51.166;10.322;2023-02-10T14:14:50;99246.00;;;2.26;78.64
26865;BME280;40618;51.166;10.322;2023-02-10T14:17:20;99239.06;;;2.22;78.24
26865;BME280;40618;51.166;10.322;2023-02-10T14:19:55;99243.91;;;2.14;77.77
26865;BME280;40618;51.166;10.322;2023-02-10T14:24:59;99242.75;;;2.05;77.18
26865;BME280;40618;51.166;10.322;2023-02-10T14:27:30;99240.00;;;1.98;77.74
26865;BME280;40618;51.166;10.322;2023-02-10T14:30:00;99221.94;;;1.94;78.20
26865;BME280;40618;51.166;10.322;2023-02-10T14:32:42;99230.38;;;1.91;78.23
26865;BME280;40618;51.166;10.322;2023-02-10T14:35:19;99230.50;;;1.94;77.96
26865;BME280;40618;51.166;10.322;2023-02-10T14:37:53;99232.34;;;1.98;78.20
26865;BME280;40618;51.166;10.322;2023-02-10T14:40:22;99212.75;;;1.99;78.31
26865;BME280;40618;51.166;10.322;2023-02-10T14:42:49;99223.84;;;1.99;78.02
26865;BME280;40618;51.166;10.322;2023-02-10T14:45:23;99228.75;;;1.93;77.76
26865;BME280;40618;51.166;10.322;2023-02-10T14:47:53;99218.28;;;1.85;77.33
26865;BME280;40618;51.166;10.322;2023-02-10T14:50:31;99222.34;;;1.80;77.23
26865;BME280;40618;51.166;10.322;2023-02-10T14:53:02;99219.00;;;1.81;77.57
26865;BME280;40618;51.166;10.322;2023-02-10T14:55:29;99223.19;;;1.79;77.61
26865;BME280;40618;51.166;10.322;2023-02-10T15:00:39;99223.91;;;1.75;77.64
26865;BME280;40618;51.166;10.322;2023-02-10T15:03:11;99213.69;;;1.75;78.03
26865;BME280;40618;51.166;10.322;2023-02-10T15:05:44;99213.56;;;1.72;77.16
26865;BME280;40618;51.166;10.322;2023-02-10T15:08:24;99217.63;;;1.65;77.33
26865;BME280;40618;51.166;10.322;2023-02-10T15:10:57;99206.34;;;1.59;77.47
26865;BME280;40618;51.166;10.322;2023-02-10T15:13:30;99202.81;;;1.55;77.88
26865;BME280;40618;51.166;10.322;2023-02-10T15:16:04;99199.25;;;1.51;77.02